Terminal Aerodrome Forecast
Issued by NWS Upton, NY

Home | Current Version | Previous Version | Text Only | Print | Product List | Glossary On
Versions: 1 2 3 4 5 6 7 8 9 10 11 12 13 14 15 16 17 18 19 20 21 22 23 24 25 26 27 28 29 30
000
FTUS41 KOKX 281445 AAA
TAFLGA
TAF AMD
KLGA 281445Z 2815/2912 36004KT P6SM FEW050 FEW250
     FM282000 18010KT P6SM SCT050
     FM290100 21005KT P6SM FEW050
     FM290400 VRB03KT P6SM FEW050=

USA.gov is the U.S. government's official web portal to all federal, state and local government web resources and services.